sensor_id;sensor_type;location;lat;lon;timestamp;P1;durP1;ratioP1;P2;durP2;ratioP2
10582;SDS011;33679;51.218;6.786;2023-04-01T00:01:25;1.57;;;1.10;;
10582;SDS011;33679;51.218;6.786;2023-04-01T00:03:58;1.73;;;0.90;;
10582;SDS011;33679;51.218;6.786;2023-04-01T00:06:32;1.00;;;0.90;;
10582;SDS011;33679;51.218;6.786;2023-04-01T00:09:07;1.47;;;0.90;;
10582;SDS011;33679;51.218;6.786;2023-04-01T00:11:40;1.77;;;0.80;;
10582;SDS011;33679;51.218;6.786;2023-04-01T00:14:12;2.87;;;0.97;;
10582;SDS011;33679;51.218;6.786;2023-04-01T00:16:46;3.50;;;0.80;;
10582;SDS011;33679;51.218;6.786;2023-04-01T00:19:18;1.00;;;0.80;;
10582;SDS011;33679;51.218;6.786;2023-04-01T00:21:51;1.43;;;0.80;;
10582;SDS011;33679;51.218;6.786;2023-04-01T00:24:23;4.30;;;1.20;;
10582;SDS011;33679;51.218;6.786;2023-04-01T00:26:56;4.20;;;0.93;;
10582;SDS011;33679;51.218;6.786;2023-04-01T00:29:28;2.43;;;0.90;;
10582;SDS011;33679;51.218;6.786;2023-04-01T00:32:02;3.50;;;0.93;;
10582;SDS011;33679;51.218;6.786;2023-04-01T00:34:35;1.57;;;0.83;;
10582;SDS011;33679;51.218;6.786;2023-04-01T00:37:08;2.40;;;1.03;;
10582;SDS011;33679;51.218;6.786;2023-04-01T00:39:40;1.63;;;0.97;;
10582;SDS011;33679;51.218;6.786;2023-04-01T00:42:12;1.10;;;0.90;;
10582;SDS011;33679;51.218;6.786;2023-04-01T00:44:47;1.33;;;1.00;;
10582;SDS011;33679;51.218;6.786;2023-04-01T00:47:26;1.80;;;0.80;;
10582;SDS011;33679;51.218;6.786;2023-04-01T00:50:02;6.13;;;1.43;;
10582;SDS011;33679;51.218;6.786;2023-04-01T00:52:34;2.13;;;0.90;;
10582;SDS011;33679;51.218;6.786;2023-04-01T00:55:07;1.60;;;0.73;;
10582;SDS011;33679;51.218;6.786;2023-04-01T00:57:44;0.97;;;0.80;;
10582;SDS011;33679;51.218;6.786;2023-04-01T01:00:18;1.43;;;0.93;;
10582;SDS011;33679;51.218;6.786;2023-04-01T01:02:55;0.83;;;0.80;;
10582;SDS011;33679;51.218;6.786;2023-04-01T01:05:31;1.23;;;0.80;;
10582;SDS011;33679;51.218;6.786;2023-04-01T01:08:11;2.60;;;1.30;;
10582;SDS011;33679;51.218;6.786;2023-04-01T01:10:49;1.13;;;0.90;;
10582;SDS011;33679;51.218;6.786;2023-04-01T01:13:22;3.37;;;0.90;;
10582;SDS011;33679;51.218;6.786;2023-04-01T01:16:06;1.87;;;1.00;;
10582;SDS011;33679;51.218;6.786;2023-04-01T01:18:49;2.07;;;1.00;;
10582;SDS011;33679;51.218;6.786;2023-04-01T01:24:42;0.90;;;0.70;;
10582;SDS011;33679;51.218;6.786;2023-04-01T01:27:22;2.30;;;0.80;;
10582;SDS011;33679;51.218;6.786;2023-04-01T01:30:01;1.37;;;0.90;;
10582;SDS011;33679;51.218;6.786;2023-04-01T01:35:51;2.20;;;1.07;;
10582;SDS011;33679;51.218;6.786;2023-04-01T01:38:29;1.77;;;0.83;;
10582;SDS011;33679;51.218;6.786;2023-04-01T01:41:06;0.80;;;0.70;;
10582;SDS011;33679;51.218;6.786;2023-04-01T01:43:41;1.57;;;0.80;;
10582;SDS011;33679;51.218;6.786;2023-04-01T01:46:21;1.00;;;0.80;;
10582;SDS011;33679;51.218;6.786;2023-04-01T01:48:56;1.57;;;0.90;;
10582;SDS011;33679;51.218;6.786;2023-04-01T01:51:32;1.90;;;0.80;;
10582;SDS011;33679;51.218;6.786;2023-04-01T01:54:11;1.63;;;1.00;;
10582;SDS011;33679;51.218;6.786;2023-04-01T01:56:46;1.30;;;0.90;;
10582;SDS011;33679;51.218;6.786;2023-04-01T01:59:23;1.73;;;0.73;;
10582;SDS011;33679;51.218;6.786;2023-04-01T02:01:59;3.13;;;1.07;;
10582;SDS011;33679;51.218;6.786;2023-04-01T02:04:38;0.80;;;0.80;;
10582;SDS011;33679;51.218;6.786;2023-04-01T02:07:16;1.13;;;0.80;;
10582;SDS011;33679;51.218;6.786;2023-04-01T02:09:53;1.23;;;0.93;;
10582;SDS011;33679;51.218;6.786;2023-04-01T02:12:26;0.80;;;0.70;;
10582;SDS011;33679;51.218;6.786;2023-04-01T02:15:01;0.90;;;0.80;;
10582;SDS011;33679;51.218;6.786;2023-04-01T02:17:43;1.50;;;0.80;;
10582;SDS011;33679;51.218;6.786;2023-04-01T02:20:29;2.10;;;0.77;;
10582;SDS011;33679;51.218;6.786;2023-04-01T02:23:18;2.70;;;1.00;;
10582;SDS011;33679;51.218;6.786;2023-04-01T02:25:52;1.40;;;1.00;;
10582;SDS011;33679;51.218;6.786;2023-04-01T02:28:35;2.50;;;1.00;;
10582;SDS011;33679;51.218;6.786;2023-04-01T02:31:11;3.03;;;0.70;;
10582;SDS011;33679;51.218;6.786;2023-04-01T02:33:46;1.20;;;0.80;;
10582;SDS011;33679;51.218;6.786;2023-04-01T02:36:19;2.10;;;0.97;;
10582;SDS011;33679;51.218;6.786;2023-04-01T02:38:53;1.03;;;0.80;;
10582;SDS011;33679;51.218;6.786;2023-04-01T02:41:30;1.47;;;0.70;;
10582;SDS011;33679;51.218;6.786;2023-04-01T02:44:03;1.07;;;0.70;;
10582;SDS011;33679;51.218;6.786;2023-04-01T02:46:36;1.00;;;0.90;;
10582;SDS011;33679;51.218;6.786;2023-04-01T02:49:09;1.30;;;0.80;;
10582;SDS011;33679;51.218;6.786;2023-04-01T02:51:41;1.63;;;0.80;;
10582;SDS011;33679;51.218;6.786;2023-04-01T02:54:16;1.00;;;0.80;;
10582;SDS011;33679;51.218;6.786;2023-04-01T02:56:49;1.50;;;0.80;;
10582;SDS011;33679;51.218;6.786;2023-04-01T02:59:21;1.37;;;0.80;;
10582;SDS011;33679;51.218;6.786;2023-04-01T03:01:54;1.17;;;0.80;;
10582;SDS011;33679;51.218;6.786;2023-04-01T03:04:27;1.00;;;0.90;;
10582;SDS011;33679;51.218;6.786;2023-04-01T03:07:00;0.80;;;0.70;;
10582;SDS011;33679;51.218;6.786;2023-04-01T03:09:34;2.20;;;0.77;;
10582;SDS011;33679;51.218;6.786;2023-04-01T03:12:07;2.23;;;1.53;;
10582;SDS011;33679;51.218;6.786;2023-04-01T03:14:50;0.80;;;0.70;;
10582;SDS011;33679;51.218;6.786;2023-04-01T03:17:24;1.43;;;0.80;;
10582;SDS011;33679;51.218;6.786;2023-04-01T03:19:57;0.70;;;0.70;;
10582;SDS011;33679;51.218;6.786;2023-04-01T03:22:30;0.90;;;0.70;;
10582;SDS011;33679;51.218;6.786;2023-04-01T03:25:04;0.90;;;0.70;;
10582;SDS011;33679;51.218;6.786;2023-04-01T03:27:40;0.70;;;0.70;;
10582;SDS011;33679;51.218;6.786;2023-04-01T03:30:13;1.57;;;0.70;;
10582;SDS011;33679;51.218;6.786;2023-04-01T03:32:54;1.03;;;0.63;;
10582;SDS011;33679;51.218;6.786;2023-04-01T03:35:26;1.17;;;0.77;;
10582;SDS011;33679;51.218;6.786;2023-04-01T03:37:59;1.20;;;0.80;;
10582;SDS011;33679;51.218;6.786;2023-04-01T03:40:33;1.23;;;0.70;;
10582;SDS011;33679;51.218;6.786;2023-04-01T03:43:07;0.87;;;0.60;;
10582;SDS011;33679;51.218;6.786;2023-04-01T03:45:43;1.33;;;0.80;;
10582;SDS011;33679;51.218;6.786;2023-04-01T03:48:17;0.70;;;0.70;;
10582;SDS011;33679;51.218;6.786;2023-04-01T03:50:51;0.70;;;0.70;;
10582;SDS011;33679;51.218;6.786;2023-04-01T03:53:24;1.10;;;0.80;;
10582;SDS011;33679;51.218;6.786;2023-04-01T03:56:04;4.60;;;0.77;;
10582;SDS011;33679;51.218;6.786;2023-04-01T03:58:38;1.00;;;0.70;;
10582;SDS011;33679;51.218;6.786;2023-04-01T04:01:16;1.20;;;0.80;;
10582;SDS011;33679;51.218;6.786;2023-04-01T04:03:52;2.03;;;0.90;;
10582;SDS011;33679;51.218;6.786;2023-04-01T04:06:26;1.40;;;0.70;;
10582;SDS011;33679;51.218;6.786;2023-04-01T04:08:59;1.00;;;0.70;;
10582;SDS011;33679;51.218;6.786;2023-04-01T04:11:35;0.70;;;0.60;;
10582;SDS011;33679;51.218;6.786;2023-04-01T04:14:07;1.37;;;0.80;;
10582;SDS011;33679;51.218;6.786;2023-04-01T04:16:40;0.80;;;0.80;;
10582;SDS011;33679;51.218;6.786;2023-04-01T04:19:14;0.80;;;0.70;;
10582;SDS011;33679;51.218;6.786;2023-04-01T04:21:46;0.90;;;0.70;;
10582;SDS011;33679;51.218;6.786;2023-04-01T04:24:19;1.00;;;0.70;;
10582;SDS011;33679;51.218;6.786;2023-04-01T04:27:07;0.90;;;0.80;;
10582;SDS011;33679;51.218;6.786;2023-04-01T04:29:46;1.13;;;0.80;;
10582;SDS011;33679;51.218;6.786;2023-04-01T04:32:18;0.80;;;0.70;;
10582;SDS011;33679;51.218;6.786;2023-04-01T04:34:51;0.80;;;0.70;;
10582;SDS011;33679;51.218;6.786;2023-04-01T04:37:24;1.43;;;0.80;;
10582;SDS011;33679;51.218;6.786;2023-04-01T04:39:57;0.93;;;0.70;;
10582;SDS011;33679;51.218;6.786;2023-04-01T04:42:31;1.53;;;0.80;;
10582;SDS011;33679;51.218;6.786;2023-04-01T04:45:10;1.40;;;0.90;;
10582;SDS011;33679;51.218;6.786;2023-04-01T04:47:48;2.50;;;0.80;;
10582;SDS011;33679;51.218;6.786;2023-04-01T04:50:21;1.27;;;0.90;;
10582;SDS011;33679;51.218;6.786;2023-04-01T04:52:54;2.20;;;0.80;;
10582;SDS011;33679;51.218;6.786;2023-04-01T04:55:27;1.37;;;0.80;;
10582;SDS011;33679;51.218;6.786;2023-04-01T04:58:20;0.73;;;0.73;;
10582;SDS011;33679;51.218;6.786;2023-04-01T05:00:53;0.90;;;0.70;;
10582;SDS011;33679;51.218;6.786;2023-04-01T05:03:31;1.27;;;0.77;;
10582;SDS011;33679;51.218;6.786;2023-04-01T05:06:04;2.93;;;0.80;;
10582;SDS011;33679;51.218;6.786;2023-04-01T05:08:37;1.13;;;0.80;;
10582;SDS011;33679;51.218;6.786;2023-04-01T05:11:13;0.80;;;0.80;;
10582;SDS011;33679;51.218;6.786;2023-04-01T05:13:49;1.10;;;1.00;;
10582;SDS011;33679;51.218;6.786;2023-04-01T05:16:23;3.07;;;0.80;;
10582;SDS011;33679;51.218;6.786;2023-04-01T05:18:58;0.90;;;0.80;;
10582;SDS011;33679;51.218;6.786;2023-04-01T05:21:30;1.40;;;0.90;;
10582;SDS011;33679;51.218;6.786;2023-04-01T05:24:03;0.80;;;0.70;;
10582;SDS011;33679;51.218;6.786;2023-04-01T05:26:40;1.30;;;0.87;;
10582;SDS011;33679;51.218;6.786;2023-04-01T05:29:14;1.00;;;0.90;;
10582;SDS011;33679;51.218;6.786;2023-04-01T05:31:47;1.00;;;0.80;;
10582;SDS011;33679;51.218;6.786;2023-04-01T05:34:20;1.50;;;1.40;;
10582;SDS011;33679;51.218;6.786;2023-04-01T05:36:52;0.97;;;0.90;;
10582;SDS011;33679;51.218;6.786;2023-04-01T05:39:25;1.43;;;0.97;;
10582;SDS011;33679;51.218;6.786;2023-04-01T05:41:58;1.20;;;1.00;;
10582;SDS011;33679;51.218;6.786;2023-04-01T05:44:32;1.43;;;1.00;;
10582;SDS011;33679;51.218;6.786;2023-04-01T05:47:24;2.13;;;1.07;;
10582;SDS011;33679;51.218;6.786;2023-04-01T05:49:57;1.57;;;1.30;;
10582;SDS011;33679;51.218;6.786;2023-04-01T05:52:30;1.77;;;1.13;;
10582;SDS011;33679;51.218;6.786;2023-04-01T05:55:02;1.40;;;1.20;;
10582;SDS011;33679;51.218;6.786;2023-04-01T05:57:35;1.40;;;1.10;;
10582;SDS011;33679;51.218;6.786;2023-04-01T06:00:10;1.67;;;1.10;;
10582;SDS011;33679;51.218;6.786;2023-04-01T06:02:45;2.90;;;1.30;;
10582;SDS011;33679;51.218;6.786;2023-04-01T06:05:21;1.20;;;1.10;;
10582;SDS011;33679;51.218;6.786;2023-04-01T06:07:57;2.70;;;1.40;;
10582;SDS011;33679;51.218;6.786;2023-04-01T06:10:35;3.37;;;1.43;;
10582;SDS011;33679;51.218;6.786;2023-04-01T06:13:18;2.50;;;1.53;;
10582;SDS011;33679;51.218;6.786;2023-04-01T06:16:07;2.80;;;1.60;;
10582;SDS011;33679;51.218;6.786;2023-04-01T06:18:52;2.70;;;2.10;;
10582;SDS011;33679;51.218;6.786;2023-04-01T06:25:02;1.70;;;1.47;;
10582;SDS011;33679;51.218;6.786;2023-04-01T06:27:53;2.07;;;1.73;;
10582;SDS011;33679;51.218;6.786;2023-04-01T06:30:49;1.70;;;1.47;;
10582;SDS011;33679;51.218;6.786;2023-04-01T06:33:44;1.67;;;1.57;;
10582;SDS011;33679;51.218;6.786;2023-04-01T06:39:56;1.70;;;1.60;;
10582;SDS011;33679;51.218;6.786;2023-04-01T06:46:04;2.90;;;1.57;;
10582;SDS011;33679;51.218;6.786;2023-04-01T06:49:07;3.50;;;1.87;;
10582;SDS011;33679;51.218;6.786;2023-04-01T06:52:13;1.80;;;1.43;;
10582;SDS011;33679;51.218;6.786;2023-04-01T06:55:16;3.07;;;1.73;;
10582;SDS011;33679;51.218;6.786;2023-04-01T06:58:19;1.40;;;1.30;;
10582;SDS011;33679;51.218;6.786;2023-04-01T07:00:54;1.63;;;1.53;;
10582;SDS011;33679;51.218;6.786;2023-04-01T07:03:30;1.40;;;1.30;;
10582;SDS011;33679;51.218;6.786;2023-04-01T07:06:10;1.90;;;1.30;;
10582;SDS011;33679;51.218;6.786;2023-04-01T07:08:56;2.60;;;1.60;;
10582;SDS011;33679;51.218;6.786;2023-04-01T07:11:49;1.37;;;1.13;;
10582;SDS011;33679;51.218;6.786;2023-04-01T07:14:46;1.80;;;1.57;;
10582;SDS011;33679;51.218;6.786;2023-04-01T07:17:22;2.10;;;1.70;;
10582;SDS011;33679;51.218;6.786;2023-04-01T07:19:59;2.70;;;2.10;;
10582;SDS011;33679;51.218;6.786;2023-04-01T07:22:40;3.60;;;1.50;;
10582;SDS011;33679;51.218;6.786;2023-04-01T07:25:44;1.83;;;1.37;;
10582;SDS011;33679;51.218;6.786;2023-04-01T07:28:46;2.03;;;1.57;;
10582;SDS011;33679;51.218;6.786;2023-04-01T07:31:32;1.70;;;1.37;;
10582;SDS011;33679;51.218;6.786;2023-04-01T07:34:18;1.83;;;1.60;;
10582;SDS011;33679;51.218;6.786;2023-04-01T07:36:54;1.77;;;1.40;;
10582;SDS011;33679;51.218;6.786;2023-04-01T07:39:41;1.97;;;1.60;;
10582;SDS011;33679;51.218;6.786;2023-04-01T07:42:31;3.00;;;1.57;;
10582;SDS011;33679;51.218;6.786;2023-04-01T07:45:14;4.17;;;1.77;;
10582;SDS011;33679;51.218;6.786;2023-04-01T07:47:57;2.07;;;1.77;;
10582;SDS011;33679;51.218;6.786;2023-04-01T07:50:37;1.50;;;1.40;;
10582;SDS011;33679;51.218;6.786;2023-04-01T07:53:19;1.60;;;1.40;;
10582;SDS011;33679;51.218;6.786;2023-04-01T07:56:05;2.80;;;1.50;;
10582;SDS011;33679;51.218;6.786;2023-04-01T07:58:46;1.50;;;1.40;;
10582;SDS011;33679;51.218;6.786;2023-04-01T08:02:03;2.90;;;1.33;;
10582;SDS011;33679;51.218;6.786;2023-04-01T08:04:50;1.70;;;1.60;;
10582;SDS011;33679;51.218;6.786;2023-04-01T08:07:30;4.17;;;3.43;;
10582;SDS011;33679;51.218;6.786;2023-04-01T08:10:35;1.60;;;1.50;;
10582;SDS011;33679;51.218;6.786;2023-04-01T08:13:36;1.50;;;1.40;;
10582;SDS011;33679;51.218;6.786;2023-04-01T08:16:35;1.40;;;1.30;;
10582;SDS011;33679;51.218;6.786;2023-04-01T08:19:25;3.47;;;1.63;;
10582;SDS011;33679;51.218;6.786;2023-04-01T08:22:11;2.50;;;1.50;;
10582;SDS011;33679;51.218;6.786;2023-04-01T08:24:49;1.70;;;1.60;;
10582;SDS011;33679;51.218;6.786;2023-04-01T08:27:31;3.20;;;1.37;;
10582;SDS011;33679;51.218;6.786;2023-04-01T08:30:16;1.50;;;1.40;;
10582;SDS011;33679;51.218;6.786;2023-04-01T08:32:52;1.80;;;1.60;;
10582;SDS011;33679;51.218;6.786;2023-04-01T08:35:29;4.77;;;2.80;;
10582;SDS011;33679;51.218;6.786;2023-04-01T08:38:10;3.13;;;2.47;;
10582;SDS011;33679;51.218;6.786;2023-04-01T08:44:27;1.40;;;1.30;;
10582;SDS011;33679;51.218;6.786;2023-04-01T08:47:24;3.73;;;1.70;;
10582;SDS011;33679;51.218;6.786;2023-04-01T08:50:27;1.87;;;1.67;;
10582;SDS011;33679;51.218;6.786;2023-04-01T08:53:33;3.87;;;2.70;;
10582;SDS011;33679;51.218;6.786;2023-04-01T08:56:23;4.47;;;2.70;;
10582;SDS011;33679;51.218;6.786;2023-04-01T08:59:08;3.70;;;3.17;;
10582;SDS011;33679;51.218;6.786;2023-04-01T09:02:50;4.67;;;4.20;;
10582;SDS011;33679;51.218;6.786;2023-04-01T09:05:44;6.27;;;5.17;;
10582;SDS011;33679;51.218;6.786;2023-04-01T09:08:39;10.83;;;8.10;;
10582;SDS011;33679;51.218;6.786;2023-04-01T09:11:28;6.37;;;5.10;;
10582;SDS011;33679;51.218;6.786;2023-04-01T09:14:20;6.47;;;5.03;;
10582;SDS011;33679;51.218;6.786;2023-04-01T09:17:38;11.30;;;5.13;;
10582;SDS011;33679;51.218;6.786;2023-04-01T09:20:52;9.53;;;6.57;;
10582;SDS011;33679;51.218;6.786;2023-04-01T09:27:03;8.00;;;5.70;;
10582;SDS011;33679;51.218;6.786;2023-04-01T09:29:54;10.30;;;7.93;;
10582;SDS011;33679;51.218;6.786;2023-04-01T09:33:15;7.93;;;6.13;;
10582;SDS011;33679;51.218;6.786;2023-04-01T09:36:07;8.73;;;5.60;;
10582;SDS011;33679;51.218;6.786;2023-04-01T09:38:55;8.40;;;6.60;;
10582;SDS011;33679;51.218;6.786;2023-04-01T09:41:29;8.23;;;5.70;;
10582;SDS011;33679;51.218;6.786;2023-04-01T09:44:11;7.73;;;5.93;;
10582;SDS011;33679;51.218;6.786;2023-04-01T09:47:16;7.33;;;5.00;;
10582;SDS011;33679;51.218;6.786;2023-04-01T09:50:16;8.33;;;5.93;;
10582;SDS011;33679;51.218;6.786;2023-04-01T09:53:09;10.30;;;7.43;;
10582;SDS011;33679;51.218;6.786;2023-04-01T09:56:00;9.17;;;6.87;;
10582;SDS011;33679;51.218;6.786;2023-04-01T10:16:50;11.27;;;7.93;;
10582;SDS011;33679;51.218;6.786;2023-04-01T10:19:54;8.87;;;6.37;;
10582;SDS011;33679;51.218;6.786;2023-04-01T10:29:17;6.00;;;4.97;;
10582;SDS011;33679;51.218;6.786;2023-04-01T10:32:25;6.20;;;4.57;;
10582;SDS011;33679;51.218;6.786;2023-04-01T10:49:41;11.60;;;7.77;;
10582;SDS011;33679;51.218;6.786;2023-04-01T10:56:16;2.30;;;2.10;;
10582;SDS011;33679;51.218;6.786;2023-04-01T10:59:49;2.50;;;2.30;;
10582;SDS011;33679;51.218;6.786;2023-04-01T11:03:02;2.50;;;2.30;;
10582;SDS011;33679;51.218;6.786;2023-04-01T11:06:45;3.20;;;2.40;;
10582;SDS011;33679;51.218;6.786;2023-04-01T11:22:50;6.80;;;4.47;;
10582;SDS011;33679;51.218;6.786;2023-04-01T11:28:55;9.17;;;6.00;;
10582;SDS011;33679;51.218;6.786;2023-04-01T11:31:47;9.93;;;6.53;;
10582;SDS011;33679;51.218;6.786;2023-04-01T11:34:43;6.73;;;5.17;;
10582;SDS011;33679;51.218;6.786;2023-04-01T11:37:31;5.73;;;4.57;;
10582;SDS011;33679;51.218;6.786;2023-04-01T11:40:41;8.83;;;5.97;;
10582;SDS011;33679;51.218;6.786;2023-04-01T11:43:38;8.90;;;6.03;;
10582;SDS011;33679;51.218;6.786;2023-04-01T11:46:28;9.50;;;5.10;;
10582;SDS011;33679;51.218;6.786;2023-04-01T11:49:19;5.50;;;4.77;;
10582;SDS011;33679;51.218;6.786;2023-04-01T11:52:26;6.67;;;4.33;;
10582;SDS011;33679;51.218;6.786;2023-04-01T11:55:35;5.43;;;4.37;;
10582;SDS011;33679;51.218;6.786;2023-04-01T12:01:20;6.50;;;5.10;;
10582;SDS011;33679;51.218;6.786;2023-04-01T12:07:08;7.93;;;5.60;;
10582;SDS011;33679;51.218;6.786;2023-04-01T12:09:53;8.67;;;6.00;;
10582;SDS011;33679;51.218;6.786;2023-04-01T12:12:36;7.03;;;5.50;;
10582;SDS011;33679;51.218;6.786;2023-04-01T12:15:17;7.33;;;6.07;;
10582;SDS011;33679;51.218;6.786;2023-04-01T12:17:56;9.40;;;6.67;;
10582;SDS011;33679;51.218;6.786;2023-04-01T12:20:43;8.57;;;6.67;;
10582;SDS011;33679;51.218;6.786;2023-04-01T12:23:37;9.97;;;7.50;;
10582;SDS011;33679;51.218;6.786;2023-04-01T12:29:23;11.80;;;8.23;;
10582;SDS011;33679;51.218;6.786;2023-04-01T12:32:15;6.73;;;5.40;;
10582;SDS011;33679;51.218;6.786;2023-04-01T12:34:57;6.50;;;5.80;;
10582;SDS011;33679;51.218;6.786;2023-04-01T12:37:39;7.83;;;5.87;;
10582;SDS011;33679;51.218;6.786;2023-04-01T12:40:23;8.80;;;6.60;;
10582;SDS011;33679;51.218;6.786;2023-04-01T12:46:09;6.03;;;5.00;;
10582;SDS011;33679;51.218;6.786;2023-04-01T12:48:59;6.87;;;5.10;;
10582;SDS011;33679;51.218;6.786;2023-04-01T12:54:57;10.53;;;6.97;;
10582;SDS011;33679;51.218;6.786;2023-04-01T13:01:22;10.40;;;7.20;;
10582;SDS011;33679;51.218;6.786;2023-04-01T13:04:37;12.70;;;9.33;;
10582;SDS011;33679;51.218;6.786;2023-04-01T13:10:47;10.43;;;8.20;;
10582;SDS011;33679;51.218;6.786;2023-04-01T13:16:38;9.00;;;7.07;;
10582;SDS011;33679;51.218;6.786;2023-04-01T13:19:21;8.90;;;6.47;;
10582;SDS011;33679;51.218;6.786;2023-04-01T13:22:03;7.63;;;6.07;;
10582;SDS011;33679;51.218;6.786;2023-04-01T13:24:49;8.70;;;7.30;;
10582;SDS011;33679;51.218;6.786;2023-04-01T13:27:30;8.00;;;6.27;;
10582;SDS011;33679;51.218;6.786;2023-04-01T13:30:20;12.73;;;9.60;;
10582;SDS011;33679;51.218;6.786;2023-04-01T13:33:04;9.10;;;6.60;;
10582;SDS011;33679;51.218;6.786;2023-04-01T13:39:02;7.40;;;6.07;;
10582;SDS011;33679;51.218;6.786;2023-04-01T13:45:02;8.00;;;5.90;;
10582;SDS011;33679;51.218;6.786;2023-04-01T13:48:00;10.10;;;6.87;;
10582;SDS011;33679;51.218;6.786;2023-04-01T13:54:24;6.90;;;5.10;;
10582;SDS011;33679;51.218;6.786;2023-04-01T13:57:27;7.23;;;5.60;;
10582;SDS011;33679;51.218;6.786;2023-04-01T14:00:15;6.57;;;5.50;;
10582;SDS011;33679;51.218;6.786;2023-04-01T14:03:24;5.07;;;4.47;;
10582;SDS011;33679;51.218;6.786;2023-04-01T14:06:05;4.83;;;3.70;;
10582;SDS011;33679;51.218;6.786;2023-04-01T14:08:49;3.53;;;3.13;;
10582;SDS011;33679;51.218;6.786;2023-04-01T14:11:42;2.90;;;2.70;;
10582;SDS011;33679;51.218;6.786;2023-04-01T14:14:27;2.60;;;2.40;;
10582;SDS011;33679;51.218;6.786;2023-04-01T14:17:17;3.60;;;2.70;;
10582;SDS011;33679;51.218;6.786;2023-04-01T14:26:20;15.37;;;10.00;;
10582;SDS011;33679;51.218;6.786;2023-04-01T14:29:08;6.27;;;5.30;;
10582;SDS011;33679;51.218;6.786;2023-04-01T14:31:53;6.63;;;3.70;;
10582;SDS011;33679;51.218;6.786;2023-04-01T14:34:37;4.40;;;3.50;;
10582;SDS011;33679;51.218;6.786;2023-04-01T14:37:33;3.33;;;3.07;;
10582;SDS011;33679;51.218;6.786;2023-04-01T14:40:16;3.70;;;3.20;;
10582;SDS011;33679;51.218;6.786;2023-04-01T14:47:04;2.97;;;2.67;;
10582;SDS011;33679;51.218;6.786;2023-04-01T14:50:09;3.10;;;2.80;;
10582;SDS011;33679;51.218;6.786;2023-04-01T14:52:52;3.73;;;3.40;;
10582;SDS011;33679;51.218;6.786;2023-04-01T14:55:50;3.70;;;3.20;;
10582;SDS011;33679;51.218;6.786;2023-04-01T15:01:57;4.27;;;3.77;;
10582;SDS011;33679;51.218;6.786;2023-04-01T15:04:39;5.43;;;4.10;;
10582;SDS011;33679;51.218;6.786;2023-04-01T15:10:49;3.80;;;3.03;;
10582;SDS011;33679;51.218;6.786;2023-04-01T15:13:54;4.00;;;2.40;;
10582;SDS011;33679;51.218;6.786;2023-04-01T15:16:39;8.07;;;6.33;;
10582;SDS011;33679;51.218;6.786;2023-04-01T15:19:29;3.53;;;3.23;;
10582;SDS011;33679;51.218;6.786;2023-04-01T15:22:17;2.93;;;2.67;;
10582;SDS011;33679;51.218;6.786;2023-04-01T15:25:25;3.10;;;2.80;;
10582;SDS011;33679;51.218;6.786;2023-04-01T15:28:14;3.43;;;3.13;;
10582;SDS011;33679;51.218;6.786;2023-04-01T15:30:56;6.20;;;4.93;;
10582;SDS011;33679;51.218;6.786;2023-04-01T15:33:47;6.70;;;5.03;;
10582;SDS011;33679;51.218;6.786;2023-04-01T15:36:29;6.70;;;5.50;;
10582;SDS011;33679;51.218;6.786;2023-04-01T15:39:12;7.03;;;5.80;;
10582;SDS011;33679;51.218;6.786;2023-04-01T15:41:53;6.53;;;4.70;;
10582;SDS011;33679;51.218;6.786;2023-04-01T15:44:45;5.37;;;3.97;;
10582;SDS011;33679;51.218;6.786;2023-04-01T15:47:34;8.27;;;6.20;;
10582;SDS011;33679;51.218;6.786;2023-04-01T15:50:35;4.60;;;3.90;;
10582;SDS011;33679;51.218;6.786;2023-04-01T15:53:29;5.10;;;4.53;;
10582;SDS011;33679;51.218;6.786;2023-04-01T15:56:24;4.57;;;4.10;;
10582;SDS011;33679;51.218;6.786;2023-04-01T15:59:16;8.00;;;5.97;;
10582;SDS011;33679;51.218;6.786;2023-04-01T16:02:01;7.03;;;5.60;;
10582;SDS011;33679;51.218;6.786;2023-04-01T16:04:47;6.93;;;5.60;;
10582;SDS011;33679;51.218;6.786;2023-04-01T16:13:20;9.30;;;6.63;;
10582;SDS011;33679;51.218;6.786;2023-04-01T16:16:07;9.30;;;6.90;;
10582;SDS011;33679;51.218;6.786;2023-04-01T16:18:53;8.40;;;6.10;;
10582;SDS011;33679;51.218;6.786;2023-04-01T16:21:41;6.83;;;5.37;;
10582;SDS011;33679;51.218;6.786;2023-04-01T16:24:19;6.40;;;5.00;;
10582;SDS011;33679;51.218;6.786;2023-04-01T16:26:57;6.03;;;4.43;;
10582;SDS011;33679;51.218;6.786;2023-04-01T16:29:38;16.80;;;10.63;;
10582;SDS011;33679;51.218;6.786;2023-04-01T16:32:22;4.53;;;4.07;;
10582;SDS011;33679;51.218;6.786;2023-04-01T16:43:37;3.93;;;2.83;;
10582;SDS011;33679;51.218;6.786;2023-04-01T16:49:30;2.90;;;2.70;;
10582;SDS011;33679;51.218;6.786;2023-04-01T16:52:15;3.37;;;3.07;;
10582;SDS011;33679;51.218;6.786;2023-04-01T16:54:50;3.10;;;2.80;;
10582;SDS011;33679;51.218;6.786;2023-04-01T16:57:28;4.60;;;3.67;;
10582;SDS011;33679;51.218;6.786;2023-04-01T17:00:14;3.10;;;2.80;;
10582;SDS011;33679;51.218;6.786;2023-04-01T17:02:57;4.57;;;3.47;;
10582;SDS011;33679;51.218;6.786;2023-04-01T17:05:39;8.13;;;5.97;;
10582;SDS011;33679;51.218;6.786;2023-04-01T17:08:18;4.40;;;3.40;;
10582;SDS011;33679;51.218;6.786;2023-04-01T17:11:03;3.67;;;3.27;;
10582;SDS011;33679;51.218;6.786;2023-04-01T17:13:50;4.17;;;3.23;;
10582;SDS011;33679;51.218;6.786;2023-04-01T17:16:40;4.60;;;3.37;;
10582;SDS011;33679;51.218;6.786;2023-04-01T17:19:28;4.37;;;3.40;;
10582;SDS011;33679;51.218;6.786;2023-04-01T17:22:13;4.07;;;2.90;;
10582;SDS011;33679;51.218;6.786;2023-04-01T17:25:08;3.70;;;3.33;;
10582;SDS011;33679;51.218;6.786;2023-04-01T17:28:03;4.30;;;2.63;;
10582;SDS011;33679;51.218;6.786;2023-04-01T17:30:44;3.30;;;3.00;;
10582;SDS011;33679;51.218;6.786;2023-04-01T17:33:27;3.40;;;3.10;;
10582;SDS011;33679;51.218;6.786;2023-04-01T17:36:21;3.27;;;3.00;;
10582;SDS011;33679;51.218;6.786;2023-04-01T17:39:13;3.27;;;3.00;;
10582;SDS011;33679;51.218;6.786;2023-04-01T17:41:54;2.50;;;2.27;;
10582;SDS011;33679;51.218;6.786;2023-04-01T17:44:33;2.70;;;2.50;;
10582;SDS011;33679;51.218;6.786;2023-04-01T17:47:29;2.67;;;2.20;;
10582;SDS011;33679;51.218;6.786;2023-04-01T17:53:11;2.63;;;2.43;;
10582;SDS011;33679;51.218;6.786;2023-04-01T17:56:10;2.80;;;2.50;;
10582;SDS011;33679;51.218;6.786;2023-04-01T17:58:48;3.63;;;2.37;;
10582;SDS011;33679;51.218;6.786;2023-04-01T18:01:35;11.40;;;7.33;;
10582;SDS011;33679;51.218;6.786;2023-04-01T18:04:28;8.53;;;6.00;;
10582;SDS011;33679;51.218;6.786;2023-04-01T18:07:26;4.27;;;3.50;;
10582;SDS011;33679;51.218;6.786;2023-04-01T18:10:28;4.60;;;4.10;;
10582;SDS011;33679;51.218;6.786;2023-04-01T18:19:25;4.43;;;3.60;;
10582;SDS011;33679;51.218;6.786;2023-04-01T18:22:09;4.20;;;3.40;;
10582;SDS011;33679;51.218;6.786;2023-04-01T18:24:55;4.10;;;3.60;;
10582;SDS011;33679;51.218;6.786;2023-04-01T18:27:33;6.50;;;5.00;;
10582;SDS011;33679;51.218;6.786;2023-04-01T18:30:11;6.33;;;4.80;;
10582;SDS011;33679;51.218;6.786;2023-04-01T18:32:48;5.80;;;5.00;;
10582;SDS011;33679;51.218;6.786;2023-04-01T18:35:34;6.23;;;4.60;;
10582;SDS011;33679;51.218;6.786;2023-04-01T18:38:23;5.83;;;5.00;;
10582;SDS011;33679;51.218;6.786;2023-04-01T18:41:12;4.17;;;3.37;;
10582;SDS011;33679;51.218;6.786;2023-04-01T18:43:51;6.93;;;3.70;;
10582;SDS011;33679;51.218;6.786;2023-04-01T18:46:36;3.30;;;3.00;;
10582;SDS011;33679;51.218;6.786;2023-04-01T18:49:21;13.50;;;8.90;;
10582;SDS011;33679;51.218;6.786;2023-04-01T18:51:59;12.70;;;7.60;;
10582;SDS011;33679;51.218;6.786;2023-04-01T18:54:49;6.20;;;4.03;;
10582;SDS011;33679;51.218;6.786;2023-04-01T18:57:46;3.00;;;2.57;;
10582;SDS011;33679;51.218;6.786;2023-04-01T19:00:26;3.10;;;2.77;;
10582;SDS011;33679;51.218;6.786;2023-04-01T19:03:07;5.20;;;3.93;;
10582;SDS011;33679;51.218;6.786;2023-04-01T19:05:58;4.13;;;3.60;;
10582;SDS011;33679;51.218;6.786;2023-04-01T19:08:42;3.80;;;3.20;;
10582;SDS011;33679;51.218;6.786;2023-04-01T19:11:30;3.23;;;2.80;;